Time,TemperatureF,DewpointF,PressureIn,WindDirection,WindDirectionDegrees,WindSpeedMPH,WindSpeedGustMPH,Humidity,HourlyPrecipIn,Conditions,Clouds,dailyrainin,SoftwareType,DateUTC
2013-05-29 00:00:00,63.4,63.0,30.11,ESE,107,0.0,0.0,97,0.00,,,0.00,weatherlink.com 1.10,2013-05-29 04:00:00,
2013-05-29 00:15:00,63.4,63.0,30.11,East,86,0.0,2.0,97,0.00,,,0.00,weatherlink.com 1.10,2013-05-29 04:15:00,
2013-05-29 00:30:00,63.4,63.0,30.11,East,87,0.0,1.0,97,0.00,,,0.00,weatherlink.com 1.10,2013-05-29 04:30:00,
2013-05-29 00:45:00,63.4,63.0,30.11,East,87,0.0,0.0,97,0.00,,,0.00,weatherlink.com 1.10,2013-05-29 04:45:00,
2013-05-29 01:00:00,63.4,63.0,30.11,East,80,0.0,0.0,98,0.00,,,0.00,weatherlink.com 1.10,2013-05-29 05:00:00,
2013-05-29 01:15:00,63.6,63.0,30.11,East,82,0.0,0.0,98,0.00,,,0.00,weatherlink.com 1.10,2013-05-29 05:15:00,
2013-05-29 01:30:00,63.6,63.0,30.10,ESE,105,0.0,0.0,97,0.00,,,0.00,weatherlink.com 1.10,2013-05-29 05:30:00,
2013-05-29 01:45:00,63.4,63.0,30.10,ESE,105,0.0,0.0,98,0.00,,,0.00,weatherlink.com 1.10,2013-05-29 05:45:00,
2013-05-29 02:00:00,62.9,62.0,30.09,ESE,105,0.0,0.0,98,0.00,,,0.00,weatherlink.com 1.10,2013-05-29 06:00:00,
2013-05-29 02:15:00,62.5,62.0,30.08,ESE,105,0.0,0.0,97,0.00,,,0.00,weatherlink.com 1.10,2013-05-29 06:15:00,
2013-05-29 02:30:00,62.1,62.0,30.08,ESE,105,0.0,0.0,98,0.00,,,0.00,weatherlink.com 1.10,2013-05-29 06:30:00,
2013-05-29 02:45:00,61.6,61.0,30.08,ESE,105,0.0,0.0,98,0.00,,,0.00,weatherlink.com 1.10,2013-05-29 06:45:00,
2013-05-29 03:00:00,61.8,61.0,30.07,ESE,105,0.0,0.0,98,0.00,,,0.00,weatherlink.com 1.10,2013-05-29 07:00:00,
2013-05-29 03:15:00,61.9,61.0,30.07,ESE,105,0.0,0.0,98,0.00,,,0.00,weatherlink.com 1.10,2013-05-29 07:15:00,
2013-05-29 03:30:00,61.5,61.0,30.08,ESE,105,0.0,0.0,98,0.00,,,0.00,weatherlink.com 1.10,2013-05-29 07:30:00,
2013-05-29 03:45:00,62.0,62.0,30.08,ESE,105,0.0,0.0,98,0.00,,,0.00,weatherlink.com 1.10,2013-05-29 07:45:00,
2013-05-29 04:00:00,61.6,61.0,30.08,ESE,105,0.0,0.0,98,0.00,,,0.00,weatherlink.com 1.10,2013-05-29 08:00:00,
2013-05-29 04:15:00,61.9,62.0,30.08,ESE,105,0.0,0.0,99,0.00,,,0.00,weatherlink.com 1.10,2013-05-29 08:15:00,
2013-05-29 04:30:00,61.4,61.0,30.08,ESE,105,0.0,0.0,98,0.00,,,0.00,weatherlink.com 1.10,2013-05-29 08:30:00,
2013-05-29 04:45:00,61.0,61.0,30.08,ESE,105,0.0,0.0,99,0.00,,,0.00,weatherlink.com 1.10,2013-05-29 08:45:00,
2013-05-29 05:00:00,61.2,61.0,30.07,ESE,105,0.0,0.0,99,0.00,,,0.00,weatherlink.com 1.10,2013-05-29 09:00:00,
2013-05-29 05:15:00,60.8,61.0,30.08,ESE,105,0.0,0.0,99,0.00,,,0.00,weatherlink.com 1.10,2013-05-29 09:15:00,
2013-05-29 05:30:00,60.7,61.0,30.08,ESE,105,0.0,0.0,99,0.00,,,0.00,weatherlink.com 1.10,2013-05-29 09:30:00,
2013-05-29 05:45:00,61.1,61.0,30.08,ESE,105,0.0,0.0,99,0.00,,,0.00,weatherlink.com 1.10,2013-05-29 09:45:00,
2013-05-29 06:00:00,61.3,61.0,30.08,ESE,105,0.0,0.0,99,0.00,,,0.00,weatherlink.com 1.10,2013-05-29 10:00:00,
2013-05-29 06:15:00,61.2,61.0,30.08,ESE,105,0.0,0.0,99,0.00,,,0.00,weatherlink.com 1.10,2013-05-29 10:15:00,
2013-05-29 06:30:00,61.3,61.0,30.08,ESE,105,0.0,0.0,99,0.00,,,0.00,weatherlink.com 1.10,2013-05-29 10:30:00,
2013-05-29 06:45:00,61.7,62.0,30.09,ESE,105,0.0,0.0,99,0.00,,,0.00,weatherlink.com 1.10,2013-05-29 10:45:00,
2013-05-29 07:01:00,62.5,62.0,30.09,ESE,105,0.0,0.0,99,0.00,,,0.00,weatherlink.com 1.10,2013-05-29 11:01:00,
2013-05-29 07:16:00,63.1,63.0,30.09,ESE,105,0.0,0.0,99,0.00,,,0.00,weatherlink.com 1.10,2013-05-29 11:16:00,
2013-05-29 07:31:00,63.9,64.0,30.10,ESE,105,0.0,0.0,99,0.00,,,0.00,weatherlink.com 1.10,2013-05-29 11:31:00,
2013-05-29 07:46:00,65.6,65.0,30.10,ESE,105,0.0,0.0,99,0.00,,,0.00,weatherlink.com 1.10,2013-05-29 11:46:00,
2013-05-29 08:01:00,65.1,64.0,30.11,NNW,334,1.0,2.0,97,0.00,,,0.00,weatherlink.com 1.10,2013-05-29 12:01:00,
2013-05-29 08:16:00,65.5,64.0,30.11,North,9,0.0,1.0,95,0.00,,,0.00,weatherlink.com 1.10,2013-05-29 12:16:00,
2013-05-29 08:31:00,65.1,64.0,30.11,West,278,0.0,3.0,95,0.00,,,0.00,weatherlink.com 1.10,2013-05-29 12:31:00,
2013-05-29 08:46:00,65.4,64.0,30.11,West,263,0.0,1.0,94,0.00,,,0.00,weatherlink.com 1.10,2013-05-29 12:46:00,
2013-05-29 09:01:00,66.3,64.0,30.11,ENE,58,2.0,3.0,93,0.00,,,0.00,weatherlink.com 1.10,2013-05-29 13:01:00,
2013-05-29 09:16:00,68.6,66.0,30.11,NE,43,1.0,2.0,90,0.00,,,0.00,weatherlink.com 1.10,2013-05-29 13:16:00,
2013-05-29 09:31:00,69.9,66.0,30.11,North,11,0.0,1.0,87,0.00,,,0.00,weatherlink.com 1.10,2013-05-29 13:31:00,
2013-05-29 09:46:00,72.5,68.0,30.11,WNW,292,0.0,2.0,85,0.00,,,0.00,weatherlink.com 1.10,2013-05-29 13:46:00,
2013-05-29 10:01:00,74.5,68.0,30.11,West,261,0.0,4.0,79,0.00,,,0.00,weatherlink.com 1.10,2013-05-29 14:01:00,
2013-05-29 10:16:00,75.5,68.0,30.11,WSW,246,3.0,4.0,77,0.00,,,0.00,weatherlink.com 1.10,2013-05-29 14:16:00,
2013-05-29 10:31:00,77.4,69.0,30.11,WNW,300,3.0,4.0,74,0.00,,,0.00,weatherlink.com 1.10,2013-05-29 14:31:00,
2013-05-29 10:46:00,78.7,69.0,30.11,West,268,1.0,6.0,71,0.00,,,0.00,weatherlink.com 1.10,2013-05-29 14:46:00,
2013-05-29 11:01:00,79.9,68.0,30.11,SSW,202,0.0,5.0,68,0.00,,,0.00,weatherlink.com 1.10,2013-05-29 15:01:00,
2013-05-29 11:16:00,81.0,66.0,30.11,WSW,241,2.0,9.0,61,0.00,,,0.00,weatherlink.com 1.10,2013-05-29 15:16:00,
2013-05-29 11:31:00,82.9,65.0,30.11,WSW,247,4.0,5.0,55,0.00,,,0.00,weatherlink.com 1.10,2013-05-29 15:31:00,
2013-05-29 11:47:00,82.5,65.0,30.11,WSW,254,1.0,11.0,55,0.00,,,0.00,weatherlink.com 1.10,2013-05-29 15:47:00,
2013-05-29 12:02:00,83.1,65.0,30.11,WNW,284,2.0,10.0,54,0.00,,,0.00,weatherlink.com 1.10,2013-05-29 16:02:00,
2013-05-29 12:17:00,83.8,65.0,30.11,WNW,299,1.0,9.0,53,0.00,,,0.00,weatherlink.com 1.10,2013-05-29 16:17:00,
2013-05-29 12:32:00,84.8,65.0,30.10,West,270,1.0,7.0,52,0.00,,,0.00,weatherlink.com 1.10,2013-05-29 16:32:00,
2013-05-29 12:47:00,84.1,64.0,30.10,SSW,205,2.0,9.0,51,0.00,,,0.00,weatherlink.com 1.10,2013-05-29 16:47:00,
2013-05-29 13:02:00,84.7,65.0,30.10,West,281,4.0,11.0,51,0.00,,,0.00,weatherlink.com 1.10,2013-05-29 17:02:00,
2013-05-29 13:17:00,85.1,65.0,30.10,WSW,244,8.0,11.0,51,0.00,,,0.00,weatherlink.com 1.10,2013-05-29 17:17:00,
2013-05-29 13:32:00,86.3,64.0,30.09,SW,230,1.0,9.0,48,0.00,,,0.00,weatherlink.com 1.10,2013-05-29 17:32:00,
2013-05-29 13:47:00,85.2,64.0,30.09,WSW,257,0.0,9.0,49,0.00,,,0.00,weatherlink.com 1.10,2013-05-29 17:47:00,
2013-05-29 14:02:00,86.7,65.0,30.09,WSW,251,1.0,12.0,49,0.00,,,0.00,weatherlink.com 1.10,2013-05-29 18:02:00,
2013-05-29 14:17:00,88.0,65.0,30.08,NNE,26,2.0,9.0,47,0.00,,,0.00,weatherlink.com 1.10,2013-05-29 18:17:00,
2013-05-29 14:32:00,87.7,65.0,30.08,South,182,1.0,9.0,47,0.00,,,0.00,weatherlink.com 1.10,2013-05-29 18:32:00,
2013-05-29 14:47:00,88.5,65.0,30.08,ESE,102,0.0,6.0,46,0.00,,,0.00,weatherlink.com 1.10,2013-05-29 18:47:00,
2013-05-29 15:02:00,87.8,65.0,30.08,ENE,69,0.0,9.0,46,0.00,,,0.00,weatherlink.com 1.10,2013-05-29 19:02:00,
2013-05-29 15:17:00,88.1,64.0,30.08,SSW,200,5.0,10.0,45,0.00,,,0.00,weatherlink.com 1.10,2013-05-29 19:17:00,
2013-05-29 15:32:00,86.9,64.0,30.08,SSE,161,5.0,10.0,46,0.00,,,0.00,weatherlink.com 1.10,2013-05-29 19:32:00,
2013-05-29 15:47:00,87.7,65.0,30.08,West,261,7.0,7.0,47,0.00,,,0.00,weatherlink.com 1.10,2013-05-29 19:47:00,
2013-05-29 16:02:00,87.6,64.0,30.08,SW,235,3.0,8.0,45,0.00,,,0.00,weatherlink.com 1.10,2013-05-29 20:02:00,
2013-05-29 16:17:00,87.5,64.0,30.07,NW,309,0.0,7.0,46,0.00,,,0.00,weatherlink.com 1.10,2013-05-29 20:17:00,
2013-05-29 16:32:00,86.6,63.0,30.07,SW,234,3.0,11.0,46,0.00,,,0.00,weatherlink.com 1.10,2013-05-29 20:32:00,
2013-05-29 16:47:00,87.7,64.0,30.07,West,260,2.0,10.0,46,0.00,,,0.00,weatherlink.com 1.10,2013-05-29 20:47:00,
2013-05-29 17:02:00,88.4,65.0,30.06,WSW,256,1.0,8.0,46,0.00,,,0.00,weatherlink.com 1.10,2013-05-29 21:02:00,
2013-05-29 17:17:00,88.0,64.0,30.06,WSW,250,1.0,8.0,45,0.00,,,0.00,weatherlink.com 1.10,2013-05-29 21:17:00,
2013-05-29 17:32:00,86.4,64.0,30.06,SSW,212,3.0,9.0,47,0.00,,,0.00,weatherlink.com 1.10,2013-05-29 21:32:00,
2013-05-29 17:47:00,88.4,64.0,30.05,West,266,1.0,7.0,45,0.00,,,0.00,weatherlink.com 1.10,2013-05-29 21:47:00,
2013-05-29 18:02:00,87.2,64.0,30.05,WSW,253,1.0,13.0,46,0.00,,,0.00,weatherlink.com 1.10,2013-05-29 22:02:00,
2013-05-29 18:17:00,87.8,63.0,30.06,West,269,1.0,5.0,43,0.00,,,0.00,weatherlink.com 1.10,2013-05-29 22:17:00,
2013-05-29 18:32:00,85.2,63.0,30.06,West,264,0.0,7.0,47,0.00,,,0.00,weatherlink.com 1.10,2013-05-29 22:32:00,
2013-05-29 18:47:00,86.1,64.0,30.06,SSW,194,0.0,5.0,47,0.00,,,0.00,weatherlink.com 1.10,2013-05-29 22:47:00,
2013-05-29 19:02:00,86.7,64.0,30.06,SW,233,2.0,6.0,46,0.00,,,0.00,weatherlink.com 1.10,2013-05-29 23:02:00,
2013-05-29 19:17:00,86.2,64.0,30.05,WSW,254,1.0,4.0,47,0.00,,,0.00,weatherlink.com 1.10,2013-05-29 23:17:00,
2013-05-29 19:32:00,84.9,64.0,30.05,SW,236,0.0,7.0,49,0.00,,,0.00,weatherlink.com 1.10,2013-05-29 23:32:00,
2013-05-29 19:47:00,83.2,63.0,30.05,SSE,166,0.0,5.0,51,0.00,,,0.00,weatherlink.com 1.10,2013-05-29 23:47:00,
2013-05-29 20:02:00,82.4,63.0,30.05,SSW,198,2.0,6.0,52,0.00,,,0.00,weatherlink.com 1.10,2013-05-30 00:02:00,
2013-05-29 20:17:00,81.0,63.0,30.05,SSW,194,0.0,1.0,54,0.00,,,0.00,weatherlink.com 1.10,2013-05-30 00:17:00,
2013-05-29 20:32:00,80.2,63.0,30.05,SW,214,3.0,3.0,55,0.00,,,0.00,weatherlink.com 1.10,2013-05-30 00:32:00,
2013-05-29 20:47:00,79.7,62.0,30.05,SSW,209,0.0,2.0,55,0.00,,,0.00,weatherlink.com 1.10,2013-05-30 00:47:00,
2013-05-29 21:02:00,78.4,62.0,30.05,SSW,202,0.0,0.0,58,0.00,,,0.00,weatherlink.com 1.10,2013-05-30 01:02:00,
2013-05-29 21:17:00,77.0,63.0,30.05,SSW,202,0.0,1.0,62,0.00,,,0.00,weatherlink.com 1.10,2013-05-30 01:17:00,
2013-05-29 21:32:00,75.6,63.0,30.06,SSW,202,0.0,0.0,66,0.00,,,0.00,weatherlink.com 1.10,2013-05-30 01:32:00,
2013-05-29 21:47:00,74.9,64.0,30.06,SSW,202,0.0,0.0,69,0.00,,,0.00,weatherlink.com 1.10,2013-05-30 01:47:00,
2013-05-29 22:02:00,73.7,65.0,30.07,SSW,202,0.0,0.0,73,0.00,,,0.00,weatherlink.com 1.10,2013-05-30 02:02:00,
2013-05-29 22:17:00,73.7,65.0,30.07,SSW,202,0.0,0.0,75,0.00,,,0.00,weatherlink.com 1.10,2013-05-30 02:17:00,
2013-05-29 22:32:00,73.6,66.0,30.08,SSW,202,0.0,0.0,76,0.00,,,0.00,weatherlink.com 1.10,2013-05-30 02:32:00,
2013-05-29 22:47:00,72.8,66.0,30.08,SSW,202,0.0,0.0,78,0.00,,,0.00,weatherlink.com 1.10,2013-05-30 02:47:00,
2013-05-29 23:02:00,72.4,66.0,30.08,SSW,202,0.0,0.0,79,0.00,,,0.00,weatherlink.com 1.10,2013-05-30 03:02:00,
2013-05-29 23:17:00,71.4,65.0,30.09,SSW,202,0.0,0.0,81,0.00,,,0.00,weatherlink.com 1.10,2013-05-30 03:17:00,
2013-05-29 23:32:00,71.3,65.0,30.09,SSW,202,0.0,0.0,81,0.00,,,0.00,weatherlink.com 1.10,2013-05-30 03:32:00,
2013-05-29 23:47:00,71.0,65.0,30.10,SSW,202,0.0,0.0,81,0.00,,,0.00,weatherlink.com 1.10,2013-05-30 03:47:00,